ENKR/KKN METAR and TAF weather

Enter ICAO airport designator
Station Type Date Time Source
ENKR METAR 2019/08/19 22:50 UTC NOAA

ENKR 192250Z AUTO 17011KT 9999 FEW023/// SCT037/// BKN053/// 14/12 Q1001 REDZ RMK WIND 731FT 16021KT


Station Type Date Time Source
ENKR Decoded METAR 2019/08/19 22:50 UTC NOAA

Kirkenes Lufthavn, Norway (ENKR) 69-44N 029-54E 91M
Aug 19, 2019 - 06:50 PM EDT / 2019.08.19 2250 UTC
Wind: from the S (170 degrees) at 13 MPH (11 KT):0
Visibility: greater than 7 mile(s):0
Sky conditions: mostly cloudy
Temperature: 57 F (14 C)
Dew Point: 53 F (12 C)
Relative Humidity: 87%
Pressure (altimeter): 29.56 in. Hg (1001 hPa)
ob: ENKR 192250Z AUTO 17011KT 9999 FEW023/// SCT037/// BKN053/// 14/12 Q1001 REDZ RMK WIND 731FT 16021KT
cycle: 23

Station Type Date Time Source
ENKR TAF 2017/08/31 21:36 UTC NOAA

TAF TAF ENKR 312300Z 3121/0109 29005KT 9999 FEW020 SCT040

Example: see airport list